createdAt,value
2018-07-09T00:00:59.432Z,101349.52
2018-07-09T00:03:28.036Z,101352.69
2018-07-09T00:05:56.729Z,101353.03
2018-07-09T00:08:25.395Z,101361.01
2018-07-09T00:11:02.782Z,101352.41
2018-07-09T00:13:31.961Z,101357.43
2018-07-09T00:16:00.774Z,101354.53
2018-07-09T00:18:29.563Z,101361.48
2018-07-09T00:20:58.335Z,101359.61
2018-07-09T00:23:27.014Z,101363.26
2018-07-09T00:25:56.505Z,101363.75
2018-07-09T00:28:25.524Z,101365.08
2018-07-09T00:30:54.116Z,101364.59
2018-07-09T00:33:23.044Z,101365.08
2018-07-09T00:35:51.619Z,101366.29
2018-07-09T00:38:20.617Z,101369.94
2018-07-09T00:40:49.341Z,101367.70
2018-07-09T00:43:18.080Z,101223.59
2018-07-09T00:45:46.656Z,101367.97
2018-07-09T00:48:15.380Z,101360.08
2018-07-09T00:50:44.012Z,101367.06
2018-07-09T00:53:12.648Z,101371.56
2018-07-09T00:55:41.244Z,101372.23
2018-07-09T00:58:09.802Z,101367.91
2018-07-09T01:00:38.408Z,101373.78
2018-07-09T01:03:07.004Z,101373.65
2018-07-09T01:05:35.621Z,101380.95
2018-07-09T01:08:04.629Z,101383.63
2018-07-09T01:10:33.421Z,101386.43
2018-07-09T01:13:02.143Z,101389.01
2018-07-09T01:15:30.698Z,101383.89
2018-07-09T01:17:59.272Z,101390.08
2018-07-09T01:20:27.951Z,101391.06
2018-07-09T01:22:56.553Z,101393.25
2018-07-09T01:25:25.475Z,101397.61
2018-07-09T01:27:54.125Z,101395.56
2018-07-09T01:30:22.782Z,101395.20
2018-07-09T01:32:51.451Z,101389.01
2018-07-09T01:35:20.033Z,101392.03
2018-07-09T01:37:48.673Z,101395.69
2018-07-09T01:40:17.280Z,101394.97
2018-07-09T01:42:46.044Z,101404.56
2018-07-09T01:45:14.668Z,101394.48
2018-07-09T01:47:43.236Z,101395.92
2018-07-09T01:50:11.821Z,101396.18
2018-07-09T01:52:40.674Z,101393.50
2018-07-09T01:55:09.428Z,101398.43
2018-07-09T01:57:38.030Z,101402.02
2018-07-09T02:00:06.933Z,101400.91
2018-07-09T02:02:35.572Z,101398.98
2018-07-09T02:05:04.332Z,101401.78
2018-07-09T02:07:33.026Z,101407.84
2018-07-09T02:10:01.704Z,101406.02
2018-07-09T02:12:30.377Z,101408.70
2018-07-09T02:14:59.049Z,101414.07
2018-07-09T02:17:27.675Z,101409.46
2018-07-09T02:19:56.318Z,101414.06
2018-07-09T02:22:25.070Z,101412.23
2018-07-09T02:24:53.733Z,101409.92
2018-07-09T02:27:22.421Z,101409.50
2018-07-09T02:29:51.113Z,101414.36
2018-07-09T02:32:19.737Z,101419.22
2018-07-09T02:34:48.445Z,101419.41
2018-07-09T02:37:17.071Z,101420.36
2018-07-09T02:39:45.815Z,101418.73
2018-07-09T02:42:14.514Z,101415.44
2018-07-09T02:44:43.136Z,101421.38
2018-07-09T02:47:11.717Z,101439.44
2018-07-09T02:49:40.328Z,101430.80
2018-07-09T02:52:08.898Z,101428.48
2018-07-09T02:54:37.702Z,101428.36
2018-07-09T02:57:06.479Z,101433.22
2018-07-09T02:59:35.085Z,101434.52
2018-07-09T03:02:04.409Z,101432.14
2018-07-09T03:04:33.041Z,101434.32
2018-07-09T03:07:01.701Z,101434.22
2018-07-09T03:09:30.448Z,101437.13
2018-07-09T03:11:59.201Z,101445.80
2018-07-09T03:14:27.769Z,101443.34
2018-07-09T03:16:56.441Z,101448.77
2018-07-09T03:19:25.063Z,101448.05
2018-07-09T03:21:53.822Z,101451.17
2018-07-09T03:24:22.510Z,101447.06
2018-07-09T03:26:51.166Z,101452.61
2018-07-09T03:29:19.775Z,101456.27
2018-07-09T03:31:48.354Z,101454.28
2018-07-09T03:34:17.255Z,101463.38
2018-07-09T03:36:45.873Z,101458.52
2018-07-09T03:39:14.650Z,101461.13
2018-07-09T03:41:43.269Z,101465.95
2018-07-09T03:44:12.000Z,101456.78
2018-07-09T03:46:40.625Z,101465.03
2018-07-09T03:49:09.260Z,101467.41
2018-07-09T03:51:37.948Z,101470.74
2018-07-09T03:54:06.962Z,101472.92
2018-07-09T03:56:35.685Z,101477.43
2018-07-09T03:59:04.297Z,101474.17
2018-07-09T04:01:32.954Z,101471.49
2018-07-09T04:04:01.618Z,101471.59
2018-07-09T04:06:30.281Z,101470.38
2018-07-09T04:08:58.917Z,101472.70
2018-07-09T04:11:27.602Z,101471.36
2018-07-09T04:13:56.264Z,101475.11
2018-07-09T04:16:24.956Z,101474.48
2018-07-09T04:18:53.699Z,101472.09
2018-07-09T04:21:22.321Z,101469.48
2018-07-09T04:23:51.616Z,101466.89
2018-07-09T04:26:20.517Z,101467.23
2018-07-09T04:28:49.391Z,101464.98
2018-07-09T04:31:18.031Z,101469.09
2018-07-09T04:33:46.714Z,101493.14
2018-07-09T04:36:15.437Z,101479.39
2018-07-09T04:38:44.051Z,101478.59
2018-07-09T04:41:12.665Z,101475.29
2018-07-09T04:43:41.313Z,101477.06
2018-07-09T04:46:09.882Z,101470.56
2018-07-09T04:48:38.628Z,101481.22
2018-07-09T04:51:07.310Z,101490.38
2018-07-09T04:53:36.144Z,101485.38
2018-07-09T04:56:05.789Z,101488.63
2018-07-09T04:58:34.403Z,101487.50
2018-07-09T05:01:03.145Z,101489.89
2018-07-09T05:03:31.838Z,101493.02
2018-07-09T05:06:00.578Z,101484.94
2018-07-09T05:08:29.276Z,101489.42
2018-07-09T05:10:57.956Z,101495.24
2018-07-09T05:13:26.685Z,101498.84
2018-07-09T05:15:55.523Z,101498.52
2018-07-09T05:18:24.218Z,101506.84
2018-07-09T05:20:52.883Z,101509.77
2018-07-09T05:23:21.466Z,101505.45
2018-07-09T05:25:50.035Z,101504.83
2018-07-09T05:28:18.656Z,101512.31
2018-07-09T05:30:47.385Z,101513.41
2018-07-09T05:33:16.006Z,101508.52
2018-07-09T05:35:44.676Z,101513.45
2018-07-09T05:38:13.389Z,101517.35
2018-07-09T05:40:42.018Z,101518.34
2018-07-09T05:43:10.720Z,101523.58
2018-07-09T05:45:39.389Z,101522.38
2018-07-09T05:48:08.484Z,101542.25
2018-07-09T05:50:37.206Z,101526.61
2018-07-09T05:53:05.862Z,101526.83
2018-07-09T05:55:34.515Z,101531.16
2018-07-09T05:58:03.200Z,101527.38
2018-07-09T06:00:31.871Z,101530.59
2018-07-09T06:03:00.559Z,101531.14
2018-07-09T06:05:29.189Z,101532.15
2018-07-09T06:07:57.764Z,101536.95
2018-07-09T06:10:26.448Z,101537.30
2018-07-09T06:12:55.236Z,101539.33
2018-07-09T06:15:23.913Z,101544.42
2018-07-09T06:17:52.695Z,101549.53
2018-07-09T06:20:21.605Z,101549.67
2018-07-09T06:22:50.475Z,101553.01
2018-07-09T06:25:19.225Z,101552.42
2018-07-09T06:27:47.830Z,101556.56
2018-07-09T06:30:16.553Z,101568.27
2018-07-09T06:32:45.152Z,101568.22
2018-07-09T06:35:13.825Z,101569.00
2018-07-09T06:37:42.628Z,101573.69
2018-07-09T06:40:11.289Z,101575.95
2018-07-09T06:42:40.011Z,101570.25
2018-07-09T06:45:08.668Z,101575.98
2018-07-09T06:47:37.302Z,101574.17
2018-07-09T06:50:06.226Z,101577.86
2018-07-09T06:52:34.851Z,101575.06
2018-07-09T06:55:03.542Z,101579.94
2018-07-09T06:57:32.293Z,101578.28
2018-07-09T07:00:00.955Z,101580.48
2018-07-09T07:02:29.598Z,101582.52
2018-07-09T07:04:58.530Z,101591.34
2018-07-09T07:07:27.150Z,101598.23
2018-07-09T07:09:55.848Z,101598.25
2018-07-09T07:12:24.473Z,101589.14
2018-07-09T07:14:53.091Z,101596.06
2018-07-09T07:17:21.750Z,101595.02
2018-07-09T07:19:50.508Z,101602.63
2018-07-09T07:22:20.610Z,101602.63
2018-07-09T07:24:49.230Z,101607.36
2018-07-09T07:27:17.907Z,101615.77
2018-07-09T07:29:46.718Z,101614.92
2018-07-09T07:32:15.448Z,101611.06
2018-07-09T07:34:44.611Z,101619.64
2018-07-09T07:37:13.296Z,101621.67
2018-07-09T07:39:41.961Z,101621.16
2018-07-09T07:42:10.647Z,101621.98
2018-07-09T07:44:39.468Z,101626.84
2018-07-09T07:47:08.191Z,101623.16
2018-07-09T07:49:36.909Z,101632.59
2018-07-09T07:52:05.767Z,101632.21
2018-07-09T07:54:34.443Z,101629.49
2018-07-09T07:57:03.078Z,101636.08
2018-07-09T07:59:31.704Z,101637.53
2018-07-09T08:02:00.421Z,101638.24
2018-07-09T08:04:29.044Z,101640.58
2018-07-09T08:06:57.709Z,101646.26
2018-07-09T08:09:26.428Z,101639.56
2018-07-09T08:12:59.658Z,101642.58
2018-07-09T08:14:23.653Z,101644.70
2018-07-09T08:16:52.710Z,101649.11
2018-07-09T08:19:21.295Z,101654.18
2018-07-09T08:21:49.929Z,101655.70
2018-07-09T08:24:18.750Z,101655.02
2018-07-09T08:26:47.464Z,101654.69
2018-07-09T08:29:16.100Z,101657.16
2018-07-09T08:31:44.794Z,101652.14
2018-07-09T08:34:13.590Z,101653.33
2018-07-09T08:36:42.258Z,101657.92
2018-07-09T08:39:10.883Z,101651.77
2018-07-09T08:41:39.613Z,101656.64
2018-07-09T08:44:08.468Z,101650.13
2018-07-09T08:46:37.081Z,101653.67
2018-07-09T08:49:05.925Z,101650.11
2018-07-09T08:51:34.531Z,101655.41
2018-07-09T08:54:03.220Z,101651.02
2018-07-09T08:56:31.920Z,101656.30
2018-07-09T08:59:00.564Z,101654.98
2018-07-09T09:01:29.261Z,101650.45
2018-07-09T09:03:57.984Z,101655.75
2018-07-09T09:06:26.522Z,101652.83
2018-07-09T09:08:55.271Z,101661.36
2018-07-09T09:11:23.943Z,101655.22
2018-07-09T09:13:52.797Z,101655.81
2018-07-09T09:16:21.514Z,101653.31
2018-07-09T09:18:50.374Z,101661.69
2018-07-09T09:21:18.960Z,101660.64
2018-07-09T09:23:47.731Z,101661.16
2018-07-09T09:26:16.366Z,101667.63
2018-07-09T09:28:45.056Z,101667.38
2018-07-09T09:31:13.706Z,101665.90
2018-07-09T09:33:42.492Z,101668.50
2018-07-09T09:36:11.198Z,101670.03
2018-07-09T09:38:39.983Z,101669.13
2018-07-09T09:41:08.699Z,101671.44
2018-07-09T09:43:37.538Z,101673.18
2018-07-09T09:46:06.645Z,101664.42
2018-07-09T09:48:35.534Z,101672.98
2018-07-09T09:52:07.113Z,101598.36
2018-07-09T09:54:35.756Z,101674.09
2018-07-09T09:57:04.579Z,101672.75
2018-07-09T09:59:33.200Z,101674.16
2018-07-09T10:02:01.879Z,101674.73
2018-07-09T10:04:30.760Z,101674.73
2018-07-09T10:06:59.450Z,101665.38
2018-07-09T10:09:28.110Z,101664.98
2018-07-09T10:11:56.962Z,101667.47
2018-07-09T10:14:26.014Z,101671.63
2018-07-09T10:16:54.699Z,101672.01
2018-07-09T10:19:23.272Z,101673.74
2018-07-09T10:21:51.944Z,101677.06
2018-07-09T10:24:20.830Z,101671.03
2018-07-09T10:26:49.449Z,101676.46
2018-07-09T10:29:18.060Z,101676.34
2018-07-09T10:31:46.697Z,101672.98
2018-07-09T10:34:15.427Z,101674.33
2018-07-09T10:36:44.054Z,101671.56
2018-07-09T10:39:12.683Z,101672.61
2018-07-09T10:41:41.364Z,101676.92
2018-07-09T10:44:10.316Z,101677.40
2018-07-09T10:46:38.956Z,101684.02
2018-07-09T10:49:07.716Z,101680.41
2018-07-09T10:51:36.372Z,101676.44
2018-07-09T10:54:05.059Z,101682.50
2018-07-09T10:56:33.620Z,101679.22
2018-07-09T10:59:02.301Z,101687.70
2018-07-09T11:01:31.305Z,101686.98
2018-07-09T11:03:59.958Z,101692.95
2018-07-09T11:06:28.555Z,101692.52
2018-07-09T11:08:57.323Z,101693.16
2018-07-09T11:11:25.903Z,101703.48
2018-07-09T11:13:54.547Z,101697.67
2018-07-09T11:16:23.464Z,101705.97
2018-07-09T11:18:52.039Z,101703.98
2018-07-09T11:21:20.700Z,101706.46
2018-07-09T11:23:49.268Z,101706.25
2018-07-09T11:26:18.068Z,101710.02
2018-07-09T11:28:46.718Z,101704.50
2018-07-09T11:31:15.328Z,101709.07
2018-07-09T11:33:43.994Z,101710.22
2018-07-09T11:36:12.670Z,101706.86
2018-07-09T11:38:41.349Z,101715.92
2018-07-09T11:41:10.081Z,101713.70
2018-07-09T11:43:38.906Z,101708.06
2018-07-09T11:46:07.577Z,101718.25
2018-07-09T11:48:36.178Z,101724.05
2018-07-09T11:51:04.867Z,101728.05
2018-07-09T11:53:33.517Z,101727.58
2018-07-09T11:56:02.216Z,101728.25
2018-07-09T11:58:30.871Z,101736.00
2018-07-09T12:00:59.521Z,101734.55
2018-07-09T12:03:28.146Z,101730.75
2018-07-09T12:05:57.054Z,101735.79
2018-07-09T12:08:25.721Z,101731.64
2018-07-09T12:10:54.414Z,101736.11
2018-07-09T12:13:23.080Z,101736.73
2018-07-09T12:15:51.771Z,101738.63
2018-07-09T12:18:20.459Z,101739.97
2018-07-09T12:20:49.119Z,101746.28
2018-07-09T12:23:17.814Z,101743.45
2018-07-09T12:25:46.507Z,101736.61
2018-07-09T12:28:15.224Z,101737.73
2018-07-09T12:30:43.876Z,101741.28
2018-07-09T12:33:12.622Z,101741.30
2018-07-09T12:35:41.314Z,101744.63
2018-07-09T12:38:10.131Z,101747.80
2018-07-09T12:40:38.887Z,101744.48
2018-07-09T12:43:07.980Z,101746.52
2018-07-09T12:45:36.654Z,101751.19
2018-07-09T12:48:05.517Z,101751.84
2018-07-09T12:50:34.156Z,101752.91
2018-07-09T12:54:05.255Z,101751.14
2018-07-09T12:56:34.561Z,101753.92
2018-07-09T12:59:03.601Z,101754.70
2018-07-09T13:01:32.291Z,101754.73
2018-07-09T13:04:01.259Z,101751.22
2018-07-09T13:06:29.864Z,101756.31
2018-07-09T13:08:58.502Z,101754.50
2018-07-09T13:11:27.228Z,101754.86
2018-07-09T13:13:55.815Z,101748.84
2018-07-09T13:16:24.462Z,101752.09
2018-07-09T13:18:53.214Z,101755.16
2018-07-09T13:21:21.801Z,101749.40
2018-07-09T13:23:50.422Z,101649.84
2018-07-09T13:26:19.096Z,101748.67
2018-07-09T13:28:47.754Z,101754.11
2018-07-09T13:31:16.613Z,101752.55
2018-07-09T13:33:45.331Z,101762.78
2018-07-09T13:36:14.010Z,101745.48
2018-07-09T13:38:42.637Z,101751.79
2018-07-09T13:41:11.335Z,101760.10
2018-07-09T13:43:39.990Z,101761.16
2018-07-09T13:46:08.639Z,101643.83
2018-07-09T13:48:37.286Z,101761.70
2018-07-09T13:51:06.109Z,101758.99
2018-07-09T13:53:37.653Z,101759.88
2018-07-09T13:56:06.526Z,101753.91
2018-07-09T13:58:35.285Z,101760.59
2018-07-09T14:01:03.935Z,101767.59
2018-07-09T14:03:32.550Z,101765.30
2018-07-09T14:06:01.224Z,101766.12
2018-07-09T14:08:29.951Z,101767.66
2018-07-09T14:10:58.547Z,101777.70
2018-07-09T14:13:27.210Z,101775.63
2018-07-09T14:15:55.918Z,101775.56
2018-07-09T14:18:24.738Z,101776.98
2018-07-09T14:20:53.409Z,101775.45
2018-07-09T14:23:22.372Z,101769.00
2018-07-09T14:25:51.041Z,101776.48
2018-07-09T14:28:19.710Z,101780.48
2018-07-09T14:30:48.430Z,101777.11
2018-07-09T14:33:17.154Z,101776.44
2018-07-09T14:35:45.856Z,101777.23
2018-07-09T14:38:14.643Z,101780.09
2018-07-09T14:40:43.377Z,101777.83
2018-07-09T14:43:12.104Z,101779.81
2018-07-09T14:45:40.743Z,101778.75
2018-07-09T14:48:09.638Z,101785.04
2018-07-09T14:50:38.300Z,101789.16
2018-07-09T14:53:06.980Z,101790.55
2018-07-09T14:55:35.599Z,101785.22
2018-07-09T14:58:04.200Z,101792.77
2018-07-09T15:00:32.831Z,101784.91
2018-07-09T15:03:01.499Z,101792.52
2018-07-09T15:05:30.102Z,101797.66
2018-07-09T15:07:58.712Z,101803.52
2018-07-09T15:10:27.500Z,101799.13
2018-07-09T15:12:56.305Z,101806.23
2018-07-09T15:15:24.912Z,101815.89
2018-07-09T15:17:53.699Z,101808.27
2018-07-09T15:20:22.518Z,101814.52
2018-07-09T15:22:51.165Z,101808.34
2018-07-09T15:25:19.876Z,101817.67
2018-07-09T15:27:48.476Z,101823.55
2018-07-09T15:30:17.151Z,101819.48
2018-07-09T15:32:45.789Z,101822.00
2018-07-09T15:35:14.525Z,101829.14
2018-07-09T15:37:43.189Z,101829.89
2018-07-09T15:40:12.062Z,101827.65
2018-07-09T15:42:40.803Z,101833.28
2018-07-09T15:45:09.434Z,101829.50
2018-07-09T15:47:38.042Z,101835.26
2018-07-09T15:50:06.883Z,101839.53
2018-07-09T15:52:35.619Z,101843.16
2018-07-09T15:55:04.384Z,101841.89
2018-07-09T15:57:33.134Z,101844.14
2018-07-09T16:00:01.777Z,101846.95
2018-07-09T16:02:30.507Z,101843.36
2018-07-09T16:04:59.130Z,101842.78
2018-07-09T16:07:27.726Z,101846.77
2018-07-09T16:09:56.297Z,101849.47
2018-07-09T16:12:25.250Z,101852.02
2018-07-09T16:14:53.807Z,101851.49
2018-07-09T16:17:22.481Z,101852.70
2018-07-09T16:19:51.044Z,101852.53
2018-07-09T16:22:19.666Z,101852.45
2018-07-09T16:24:48.404Z,101850.75
2018-07-09T16:27:16.986Z,101856.30
2018-07-09T16:29:45.731Z,101856.63
2018-07-09T16:32:14.590Z,101853.08
2018-07-09T16:34:43.258Z,101857.48
2018-07-09T16:37:11.927Z,101856.64
2018-07-09T16:39:40.600Z,101858.11
2018-07-09T16:42:09.311Z,101862.11
2018-07-09T16:44:37.958Z,101859.56
2018-07-09T16:47:06.923Z,101859.72
2018-07-09T16:49:35.552Z,101863.52
2018-07-09T16:52:04.201Z,101862.30
2018-07-09T16:54:32.784Z,101861.88
2018-07-09T16:57:01.472Z,101865.22
2018-07-09T16:59:30.082Z,101867.74
2018-07-09T17:01:58.713Z,101862.84
2018-07-09T17:04:27.409Z,101863.07
2018-07-09T17:06:55.993Z,101860.40
2018-07-09T17:09:24.686Z,101868.09
2018-07-09T17:11:53.381Z,101865.98
2018-07-09T17:14:22.203Z,101865.94
2018-07-09T17:16:50.815Z,101866.53
2018-07-09T17:19:19.457Z,101870.94
2018-07-09T17:21:49.569Z,101873.87
2018-07-09T17:24:18.301Z,101870.05
2018-07-09T17:26:46.988Z,101869.11
2018-07-09T17:29:15.698Z,101873.84
2018-07-09T17:31:44.303Z,101881.42
2018-07-09T17:34:13.400Z,101882.27
2018-07-09T17:36:42.014Z,101885.52
2018-07-09T17:39:10.940Z,101885.02
2018-07-09T17:41:39.769Z,101890.22
2018-07-09T17:44:08.535Z,101886.91
2018-07-09T17:46:37.213Z,101888.09
2018-07-09T17:49:05.916Z,101886.23
2018-07-09T17:51:34.535Z,101887.92
2018-07-09T17:54:03.148Z,101888.77
2018-07-09T17:56:31.771Z,101884.73
2018-07-09T17:59:00.414Z,101889.84
2018-07-09T18:01:29.201Z,101888.13
2018-07-09T18:03:57.860Z,101884.37
2018-07-09T18:06:26.523Z,101890.32
2018-07-09T18:08:55.227Z,101884.50
2018-07-09T18:11:23.837Z,101889.81
2018-07-09T18:13:52.452Z,101894.34
2018-07-09T18:16:21.136Z,101894.21
2018-07-09T18:18:49.786Z,101897.05
2018-07-09T18:21:18.489Z,101901.11
2018-07-09T18:23:47.125Z,101898.61
2018-07-09T18:26:17.602Z,101897.94
2018-07-09T18:28:46.808Z,101895.22
2018-07-09T18:31:16.201Z,101902.52
2018-07-09T18:33:45.842Z,101906.78
2018-07-09T18:36:15.402Z,101902.70
2018-07-09T18:38:44.712Z,101907.80
2018-07-09T18:41:13.388Z,101913.41
2018-07-09T18:43:42.112Z,101912.23
2018-07-09T18:46:10.820Z,101915.95
2018-07-09T18:48:39.581Z,101918.17
2018-07-09T18:51:08.615Z,101918.68
2018-07-09T18:53:37.728Z,101921.41
2018-07-09T18:56:06.484Z,101916.14
2018-07-09T18:58:35.423Z,101922.73
2018-07-09T19:01:04.225Z,101915.44
2018-07-09T19:03:32.871Z,101922.53
2018-07-09T19:07:07.949Z,101924.05
2018-07-09T19:09:37.896Z,101920.34
2018-07-09T19:12:07.952Z,101917.28
2018-07-09T19:14:40.658Z,101919.47
2018-07-09T19:18:20.595Z,101925.88
2018-07-09T19:21:27.455Z,101926.36
2018-07-09T19:23:55.355Z,101930.23
2018-07-09T19:26:22.812Z,101936.29
2018-07-09T19:28:50.564Z,101944.14
2018-07-09T19:31:18.388Z,101944.45
2018-07-09T19:33:45.958Z,101950.69
2018-07-09T19:36:13.721Z,101951.84
2018-07-09T19:38:41.306Z,101954.04
2018-07-09T19:41:09.261Z,101954.97
2018-07-09T19:43:37.363Z,101951.56
2018-07-09T19:46:04.776Z,101963.50
2018-07-09T19:48:32.206Z,101955.86
2018-07-09T19:50:59.553Z,101959.70
2018-07-09T19:53:26.923Z,101960.39
2018-07-09T19:55:54.300Z,101962.19
2018-07-09T19:58:21.677Z,101964.03
2018-07-09T20:00:49.117Z,101964.33
2018-07-09T20:03:16.538Z,101970.52
2018-07-09T20:05:43.986Z,101969.63
2018-07-09T20:08:11.454Z,101971.32
2018-07-09T20:10:44.030Z,101968.67
2018-07-09T20:13:16.507Z,101963.56
2018-07-09T20:15:49.072Z,101964.62
2018-07-09T20:18:16.491Z,101965.91
2018-07-09T20:20:44.001Z,101966.03
2018-07-09T20:23:11.386Z,101967.86
2018-07-09T20:25:38.861Z,101964.61
2018-07-09T20:28:06.288Z,101967.92
2018-07-09T20:30:33.720Z,101969.62
2018-07-09T20:33:01.104Z,101966.37
2018-07-09T20:35:28.445Z,101965.98
2018-07-09T20:37:55.873Z,101974.47
2018-07-09T20:40:23.221Z,101985.87
2018-07-09T20:42:50.559Z,101983.30
2018-07-09T20:45:18.233Z,101984.39
2018-07-09T20:47:46.533Z,101983.58
2018-07-09T20:50:14.019Z,101983.55
2018-07-09T20:52:41.383Z,101989.35
2018-07-09T20:55:08.890Z,101990.16
2018-07-09T20:57:36.622Z,101992.60
2018-07-09T21:00:04.005Z,101996.06
2018-07-09T21:02:32.179Z,101987.72
2018-07-09T21:04:59.547Z,101987.01
2018-07-09T21:07:27.282Z,101994.55
2018-07-09T21:09:54.711Z,101993.62
2018-07-09T21:12:22.119Z,101996.83
2018-07-09T21:14:49.502Z,102001.84
2018-07-09T21:17:16.963Z,101998.59
2018-07-09T21:19:44.421Z,101998.64
2018-07-09T21:22:11.953Z,101999.71
2018-07-09T21:24:39.452Z,102003.45
2018-07-09T21:27:06.926Z,102008.91
2018-07-09T21:29:34.413Z,102008.14
2018-07-09T21:32:01.879Z,102003.98
2018-07-09T21:34:29.287Z,102007.60
2018-07-09T21:36:56.961Z,102010.70
2018-07-09T21:39:24.467Z,102012.83
2018-07-09T21:41:51.931Z,102012.20
2018-07-09T21:44:19.355Z,102020.20
2018-07-09T21:46:46.993Z,102011.60
2018-07-09T21:49:14.564Z,102017.73
2018-07-09T21:51:41.975Z,102022.42
2018-07-09T21:54:09.363Z,102022.83
2018-07-09T21:56:36.818Z,102028.20
2018-07-09T21:59:04.350Z,102027.54
2018-07-09T22:01:31.810Z,102029.11
2018-07-09T22:03:59.165Z,102032.29
2018-07-09T22:06:27.088Z,102032.28
2018-07-09T22:08:54.604Z,102033.52
2018-07-09T22:11:22.114Z,102040.66
2018-07-09T22:13:49.616Z,102036.89
2018-07-09T22:16:17.281Z,102039.08
2018-07-09T22:18:44.945Z,102038.59
2018-07-09T22:21:12.360Z,102044.86
2018-07-09T22:23:39.836Z,102038.96
2018-07-09T22:26:07.264Z,102040.23
2018-07-09T22:28:34.700Z,102044.87
2018-07-09T22:31:03.366Z,102047.06
2018-07-09T22:33:32.307Z,102042.28
2018-07-09T22:36:00.887Z,102045.25
2018-07-09T22:38:29.531Z,102056.47
2018-07-09T22:40:58.321Z,102056.84
2018-07-09T22:43:38.165Z,102053.36
2018-07-09T22:46:06.784Z,102053.91
2018-07-09T22:48:35.483Z,102053.30
2018-07-09T22:51:04.372Z,102052.05
2018-07-09T22:53:32.993Z,102056.73
2018-07-09T22:56:10.139Z,102060.51
2018-07-09T22:58:39.986Z,102067.13
2018-07-09T23:01:08.720Z,102063.75
2018-07-09T23:03:37.424Z,102071.80
2018-07-09T23:06:06.102Z,102075.33
2018-07-09T23:08:34.823Z,102071.34
2018-07-09T23:13:14.494Z,102070.37
2018-07-09T23:15:54.413Z,102073.53
2018-07-09T23:18:34.316Z,102070.00
2018-07-09T23:23:08.918Z,102071.87
2018-07-09T23:25:36.299Z,102077.98
2018-07-09T23:28:03.702Z,102087.52
2018-07-09T23:30:37.214Z,102082.27
2018-07-09T23:33:04.610Z,102083.00
2018-07-09T23:35:32.012Z,102087.87
2018-07-09T23:37:59.426Z,102091.16
2018-07-09T23:40:26.976Z,102088.11
2018-07-09T23:42:54.367Z,102086.44
2018-07-09T23:45:21.791Z,102089.72
2018-07-09T23:47:49.228Z,102090.45
2018-07-09T23:50:16.659Z,102093.12
2018-07-09T23:52:44.109Z,102101.94
2018-07-09T23:55:11.507Z,102097.44
2018-07-09T23:59:53.187Z,102095.97
